createdAt,value
2019-03-23T00:00:14.328Z,42.15
2019-03-23T00:02:18.245Z,43.25
2019-03-23T00:04:21.822Z,43.78
2019-03-23T00:06:30.876Z,56.37
2019-03-23T00:08:30.932Z,51.80
2019-03-23T00:10:34.413Z,43.83
2019-03-23T00:12:38.357Z,32.48
2019-03-23T00:14:42.264Z,34.00
2019-03-23T00:16:46.676Z,35.33
2019-03-23T00:18:50.248Z,46.20
2019-03-23T00:20:53.721Z,40.38
2019-03-23T00:22:57.298Z,36.42
2019-03-23T00:25:01.173Z,38.98
2019-03-23T00:27:04.963Z,37.38
2019-03-23T00:29:08.556Z,40.45
2019-03-23T00:31:12.022Z,39.42
2019-03-23T00:33:15.910Z,35.48
2019-03-23T00:35:19.452Z,37.65
2019-03-23T00:37:24.481Z,38.73
2019-03-23T00:39:28.012Z,33.35
2019-03-23T00:41:31.616Z,35.00
2019-03-23T00:43:35.080Z,37.05
2019-03-23T00:45:38.689Z,32.85
2019-03-23T00:47:42.226Z,28.23
2019-03-23T00:49:45.761Z,36.90
2019-03-23T00:51:49.224Z,41.30
2019-03-23T00:53:53.569Z,48.52
2019-03-23T00:55:57.027Z,31.00
2019-03-23T00:58:00.497Z,49.60
2019-03-23T01:00:09.660Z,28.32
2019-03-23T01:02:13.165Z,32.58
2019-03-23T01:04:16.824Z,21.37
2019-03-23T01:06:20.598Z,19.85
2019-03-23T01:08:24.502Z,21.05
2019-03-23T01:10:28.304Z,20.60
2019-03-23T01:12:31.844Z,18.27
2019-03-23T01:14:35.314Z,18.07
2019-03-23T01:16:39.096Z,17.80
2019-03-23T01:18:42.722Z,20.35
2019-03-23T01:20:49.846Z,22.00
2019-03-23T01:22:51.691Z,24.92
2019-03-23T01:24:55.564Z,23.38
2019-03-23T01:26:59.100Z,22.02
2019-03-23T01:29:02.641Z,25.27
2019-03-23T01:31:06.433Z,35.95
2019-03-23T01:33:09.976Z,23.02
2019-03-23T01:35:13.716Z,27.48
2019-03-23T01:37:17.183Z,24.72
2019-03-23T01:39:20.825Z,26.60
2019-03-23T01:41:24.302Z,29.72
2019-03-23T01:43:28.117Z,29.57
2019-03-23T01:45:31.576Z,28.10
2019-03-23T01:47:35.112Z,23.67
2019-03-23T01:49:38.646Z,26.90
2019-03-23T01:51:43.008Z,28.35
2019-03-23T01:53:46.638Z,28.92
2019-03-23T01:55:50.184Z,26.87
2019-03-23T01:57:53.710Z,30.15
2019-03-23T01:59:57.253Z,26.70
2019-03-23T02:02:01.033Z,28.60
2019-03-23T02:04:04.580Z,27.73
2019-03-23T02:06:08.041Z,28.38
2019-03-23T02:08:12.493Z,28.12
2019-03-23T02:10:16.208Z,20.95
2019-03-23T02:12:19.677Z,24.43
2019-03-23T02:14:23.216Z,19.32
2019-03-23T02:16:26.683Z,29.63
2019-03-23T02:18:30.233Z,23.10
2019-03-23T02:20:34.003Z,24.30
2019-03-23T02:22:37.541Z,23.73
2019-03-23T02:24:41.112Z,21.25
2019-03-23T02:26:44.571Z,22.87
2019-03-23T02:28:48.412Z,24.35
2019-03-23T02:30:51.990Z,30.68
2019-03-23T02:32:55.529Z,22.67
2019-03-23T02:34:58.997Z,25.02
2019-03-23T02:37:02.541Z,23.52
2019-03-23T02:39:06.617Z,27.25
2019-03-23T02:41:10.517Z,23.22
2019-03-23T02:43:14.364Z,26.97
2019-03-23T02:45:17.944Z,29.02
2019-03-23T02:47:21.485Z,24.37
2019-03-23T02:49:24.975Z,24.23
2019-03-23T02:51:28.494Z,24.10
2019-03-23T02:53:32.037Z,25.75
2019-03-23T02:55:35.508Z,22.98
2019-03-23T02:57:39.136Z,24.32
2019-03-23T02:59:42.661Z,24.43
2019-03-23T03:01:46.133Z,26.48
2019-03-23T03:03:49.664Z,27.85
2019-03-23T03:05:53.138Z,30.48
2019-03-23T03:07:56.749Z,26.17
2019-03-23T03:10:00.423Z,28.62
2019-03-23T03:12:04.305Z,28.12
2019-03-23T03:14:08.142Z,24.70
2019-03-23T03:16:11.663Z,28.38
2019-03-23T03:18:15.261Z,27.55
2019-03-23T03:20:18.805Z,35.17
2019-03-23T03:22:22.278Z,31.60
2019-03-23T03:24:25.861Z,33.78
2019-03-23T03:26:29.329Z,33.53
2019-03-23T03:28:32.796Z,35.80
2019-03-23T03:30:36.716Z,34.38
2019-03-23T03:32:41.019Z,38.63
2019-03-23T03:34:44.661Z,33.63
2019-03-23T03:36:48.207Z,31.87
2019-03-23T03:38:51.750Z,33.88
2019-03-23T03:40:55.310Z,33.95
2019-03-23T03:42:59.001Z,34.95
2019-03-23T03:45:02.507Z,32.85
2019-03-23T03:47:06.285Z,35.50
2019-03-23T03:49:12.703Z,34.08
2019-03-23T03:51:15.446Z,29.82
2019-03-23T03:53:19.096Z,28.42
2019-03-23T03:55:22.871Z,31.95
2019-03-23T03:57:26.414Z,34.60
2019-03-23T03:59:29.958Z,31.82
2019-03-23T04:01:33.612Z,29.95
2019-03-23T04:03:37.318Z,29.70
2019-03-23T04:05:40.909Z,42.13
2019-03-23T04:07:44.561Z,38.02
2019-03-23T04:09:48.112Z,51.28
2019-03-23T04:11:52.447Z,35.05
2019-03-23T04:13:55.985Z,33.33
2019-03-23T04:15:59.878Z,36.48
2019-03-23T04:18:03.408Z,34.88
2019-03-23T04:20:08.674Z,34.10
2019-03-23T04:22:12.504Z,32.30
2019-03-23T04:24:16.041Z,30.60
2019-03-23T04:26:19.873Z,30.25
2019-03-23T04:28:23.418Z,36.65
2019-03-23T04:30:27.002Z,31.57
2019-03-23T04:32:30.493Z,31.45
2019-03-23T04:34:33.956Z,36.28
2019-03-23T04:36:37.538Z,36.40
2019-03-23T04:38:41.280Z,33.78
2019-03-23T04:40:45.089Z,36.42
2019-03-23T04:42:48.621Z,36.38
2019-03-23T04:44:52.084Z,33.15
2019-03-23T04:46:55.549Z,32.10
2019-03-23T04:48:59.016Z,32.48
2019-03-23T04:51:02.484Z,33.35
2019-03-23T04:53:06.151Z,31.45
2019-03-23T04:55:11.628Z,33.48
2019-03-23T04:57:15.876Z,32.83
2019-03-23T04:59:19.335Z,31.93
2019-03-23T05:01:22.916Z,32.60
2019-03-23T05:03:26.452Z,34.30
2019-03-23T05:05:30.662Z,33.88
2019-03-23T05:07:34.412Z,35.17
2019-03-23T05:09:38.419Z,32.35
2019-03-23T05:11:42.740Z,31.20
2019-03-23T05:13:46.204Z,31.85
2019-03-23T05:15:50.028Z,29.27
2019-03-23T05:17:53.574Z,30.88
2019-03-23T05:19:57.487Z,29.82
2019-03-23T05:22:00.965Z,31.15
2019-03-23T05:24:05.328Z,31.50
2019-03-23T05:26:08.848Z,26.70
2019-03-23T05:28:12.737Z,29.30
2019-03-23T05:30:16.210Z,29.75
2019-03-23T05:32:19.744Z,33.08
2019-03-23T05:34:23.209Z,29.55
2019-03-23T05:36:27.032Z,28.80
2019-03-23T05:38:30.568Z,27.32
2019-03-23T05:40:34.041Z,32.00
2019-03-23T05:42:37.734Z,29.07
2019-03-23T05:44:42.109Z,28.62
2019-03-23T05:46:45.683Z,32.23
2019-03-23T05:48:49.148Z,31.48
2019-03-23T05:50:52.676Z,36.40
2019-03-23T05:52:56.520Z,34.27
2019-03-23T05:54:59.986Z,31.73
2019-03-23T05:57:03.454Z,29.40
2019-03-23T05:59:07.273Z,30.08
2019-03-23T06:01:10.841Z,30.75
2019-03-23T06:03:14.599Z,29.40
2019-03-23T06:05:18.246Z,27.90
2019-03-23T06:07:21.813Z,27.48
2019-03-23T06:09:25.288Z,31.00
2019-03-23T06:11:29.209Z,27.55
2019-03-23T06:13:32.848Z,26.97
2019-03-23T06:15:36.308Z,32.60
2019-03-23T06:17:39.777Z,37.28
2019-03-23T06:19:43.242Z,28.90
2019-03-23T06:21:46.759Z,41.58
2019-03-23T06:23:50.301Z,40.92
2019-03-23T06:25:53.834Z,60.00
2019-03-23T06:27:57.436Z,43.23
2019-03-23T06:30:00.896Z,35.73
2019-03-23T06:32:04.704Z,32.05
2019-03-23T06:34:10.693Z,30.55
2019-03-23T06:36:14.177Z,33.25
2019-03-23T06:38:17.726Z,32.78
2019-03-23T06:40:21.725Z,33.28
2019-03-23T06:42:25.890Z,30.40
2019-03-23T06:44:29.964Z,31.87
2019-03-23T06:46:33.478Z,32.08
2019-03-23T06:48:37.029Z,28.87
2019-03-23T06:50:40.492Z,29.18
2019-03-23T06:52:44.234Z,27.37
2019-03-23T06:54:47.696Z,28.57
2019-03-23T06:56:51.230Z,31.73
2019-03-23T06:58:55.511Z,30.12
2019-03-23T07:00:59.192Z,31.25
2019-03-23T07:03:02.729Z,28.50
2019-03-23T07:05:08.580Z,26.77
2019-03-23T07:07:12.036Z,29.00
2019-03-23T07:09:16.429Z,26.62
2019-03-23T07:11:20.732Z,30.00
2019-03-23T07:13:24.359Z,28.12
2019-03-23T07:15:28.101Z,25.50
2019-03-23T07:17:31.571Z,27.22
2019-03-23T07:19:36.396Z,30.52
2019-03-23T07:21:40.208Z,26.73
2019-03-23T07:23:43.818Z,46.83
2019-03-23T07:25:47.367Z,29.15
2019-03-23T07:27:51.432Z,30.30
2019-03-23T07:29:54.938Z,27.15
2019-03-23T07:32:05.723Z,26.80
2019-03-23T07:34:06.129Z,27.13
2019-03-23T07:36:11.228Z,26.82
2019-03-23T07:38:15.061Z,27.60
2019-03-23T07:40:19.288Z,27.58
2019-03-23T07:42:22.756Z,27.55
2019-03-23T07:44:26.356Z,44.03
2019-03-23T07:46:30.186Z,26.12
2019-03-23T07:48:33.724Z,26.30
2019-03-23T07:50:37.561Z,27.58
2019-03-23T07:52:41.104Z,26.27
2019-03-23T07:54:44.639Z,27.07
2019-03-23T07:56:48.452Z,26.30
2019-03-23T07:58:51.921Z,24.02
2019-03-23T08:00:55.602Z,26.48
2019-03-23T08:02:59.380Z,26.97
2019-03-23T08:05:03.152Z,27.62
2019-03-23T08:07:06.956Z,26.77
2019-03-23T08:09:19.982Z,24.50
2019-03-23T08:11:15.944Z,26.52
2019-03-23T08:13:19.882Z,60.05
2019-03-23T08:15:23.441Z,25.23
2019-03-23T08:17:26.989Z,29.85
2019-03-23T08:19:30.892Z,31.35
2019-03-23T08:21:35.415Z,45.30
2019-03-23T08:23:39.217Z,53.35
2019-03-23T08:25:42.787Z,28.23
2019-03-23T08:27:46.643Z,26.15
2019-03-23T08:29:50.248Z,35.25
2019-03-23T08:31:54.534Z,27.85
2019-03-23T08:33:58.158Z,34.48
2019-03-23T08:36:01.626Z,26.73
2019-03-23T08:38:05.524Z,29.07
2019-03-23T08:40:10.228Z,27.37
2019-03-23T08:42:13.705Z,28.42
2019-03-23T08:44:17.317Z,28.62
2019-03-23T08:46:20.913Z,28.52
2019-03-23T08:48:24.372Z,38.48
2019-03-23T08:50:28.128Z,32.17
2019-03-23T08:52:31.941Z,33.08
2019-03-23T08:54:35.511Z,38.70
2019-03-23T08:56:38.985Z,30.75
2019-03-23T08:58:41.809Z,35.45
2019-03-23T09:00:45.358Z,32.00
2019-03-23T09:02:48.981Z,37.08
2019-03-23T09:04:52.544Z,30.60
2019-03-23T09:06:56.093Z,31.95
2019-03-23T09:09:00.689Z,29.18
2019-03-23T09:11:04.529Z,33.05
2019-03-23T09:13:08.058Z,30.32
2019-03-23T09:15:12.321Z,30.50
2019-03-23T09:17:15.881Z,24.90
2019-03-23T09:19:19.416Z,29.70
2019-03-23T09:21:23.229Z,25.77
2019-03-23T09:23:26.780Z,24.45
2019-03-23T09:25:31.209Z,27.70
2019-03-23T09:27:34.759Z,28.10
2019-03-23T09:29:38.532Z,23.87
2019-03-23T09:31:42.438Z,28.38
2019-03-23T09:33:46.855Z,25.90
2019-03-23T09:35:50.662Z,26.90
2019-03-23T09:37:54.575Z,31.82
2019-03-23T09:44:25.035Z,22.42
2019-03-23T09:46:28.529Z,19.77
2019-03-23T09:48:32.112Z,17.57
2019-03-23T09:54:22.892Z,17.73
2019-03-23T09:56:26.428Z,22.10
2019-03-23T09:58:29.896Z,17.67
2019-03-23T10:04:25.905Z,32.42
2019-03-23T10:06:29.445Z,18.57
2019-03-23T10:08:32.919Z,17.80
2019-03-23T10:14:26.549Z,20.08
2019-03-23T10:16:31.173Z,21.55
2019-03-23T10:18:34.716Z,20.48
2019-03-23T10:23:54.673Z,20.52
2019-03-23T10:25:58.674Z,21.87
2019-03-23T10:28:02.488Z,23.42
2019-03-23T10:30:08.568Z,22.00
2019-03-23T10:32:12.410Z,21.30
2019-03-23T10:34:15.877Z,25.65
2019-03-23T10:36:19.487Z,32.35
2019-03-23T10:38:22.952Z,23.77
2019-03-23T10:40:32.383Z,29.23
2019-03-23T10:42:31.965Z,32.70
2019-03-23T10:44:36.081Z,27.95
2019-03-23T10:46:39.952Z,23.92
2019-03-23T10:48:43.989Z,29.50
2019-03-23T10:50:47.890Z,21.05
2019-03-23T10:52:51.528Z,17.60
2019-03-23T10:54:55.036Z,15.50
2019-03-23T10:56:58.568Z,15.75
2019-03-23T10:59:02.032Z,16.62
2019-03-23T11:01:05.885Z,15.98
2019-03-23T11:03:09.828Z,17.40
2019-03-23T11:05:13.468Z,17.65
2019-03-23T11:07:16.941Z,15.95
2019-03-23T11:09:20.484Z,14.68
2019-03-23T11:11:23.944Z,17.20
2019-03-23T11:13:27.773Z,15.40
2019-03-23T11:15:31.573Z,17.23
2019-03-23T11:17:38.146Z,17.50
2019-03-23T11:19:41.684Z,15.03
2019-03-23T11:21:45.429Z,14.35
2019-03-23T11:23:49.777Z,17.62
2019-03-23T11:25:53.316Z,18.32
2019-03-23T11:27:57.044Z,18.60
2019-03-23T11:30:00.512Z,18.98
2019-03-23T11:32:04.552Z,19.80
2019-03-23T11:34:17.522Z,16.97
2019-03-23T11:36:13.647Z,18.02
2019-03-23T11:38:17.388Z,17.90
2019-03-23T11:40:21.196Z,18.42
2019-03-23T11:42:25.000Z,16.90
2019-03-23T11:44:28.926Z,18.00
2019-03-23T11:46:32.790Z,16.75
2019-03-23T11:48:37.196Z,15.98
2019-03-23T11:50:40.777Z,14.05
2019-03-23T11:52:44.319Z,14.03
2019-03-23T11:54:47.863Z,15.00
2019-03-23T11:56:51.469Z,14.75
2019-03-23T11:58:55.897Z,15.20
2019-03-23T12:00:59.378Z,14.18
2019-03-23T12:03:03.062Z,12.85
2019-03-23T12:05:08.418Z,12.80
2019-03-23T12:07:11.988Z,13.00
2019-03-23T12:09:15.513Z,13.15
2019-03-23T12:11:18.976Z,11.60
2019-03-23T12:13:22.698Z,12.93
2019-03-23T12:15:26.173Z,13.00
2019-03-23T12:17:29.744Z,12.90
2019-03-23T12:19:33.820Z,12.95
2019-03-23T12:21:37.295Z,14.15
2019-03-23T12:23:41.144Z,14.10
2019-03-23T12:25:44.976Z,13.53
2019-03-23T12:27:48.878Z,15.63
2019-03-23T12:29:53.240Z,15.55
2019-03-23T12:31:57.172Z,13.62
2019-03-23T12:34:00.802Z,11.93
2019-03-23T12:36:04.452Z,13.55
2019-03-23T12:38:08.272Z,36.25
2019-03-23T12:40:12.388Z,16.15
2019-03-23T12:42:16.288Z,14.05
2019-03-23T12:44:20.621Z,13.60
2019-03-23T12:46:25.014Z,14.10
2019-03-23T12:48:28.548Z,13.48
2019-03-23T12:50:32.021Z,12.75
2019-03-23T12:52:35.746Z,14.25
2019-03-23T12:54:40.178Z,13.50
2019-03-23T12:56:43.784Z,12.73
2019-03-23T12:58:47.478Z,13.58
2019-03-23T13:00:51.053Z,14.03
2019-03-23T13:02:54.900Z,13.00
2019-03-23T13:04:58.440Z,13.72
2019-03-23T13:07:01.914Z,13.00
2019-03-23T13:09:07.244Z,12.45
2019-03-23T13:11:11.540Z,13.58
2019-03-23T13:13:15.003Z,13.30
2019-03-23T13:15:18.805Z,13.70
2019-03-23T13:17:22.393Z,14.43
2019-03-23T13:19:25.924Z,15.48
2019-03-23T13:23:32.978Z,12.82
2019-03-23T13:25:36.881Z,13.15
2019-03-23T13:27:42.161Z,12.33
2019-03-23T13:29:45.613Z,13.48
2019-03-23T13:31:49.154Z,15.60
2019-03-23T13:33:52.851Z,15.85
2019-03-23T13:35:56.790Z,16.05
2019-03-23T13:38:00.793Z,14.38
2019-03-23T13:40:09.824Z,13.88
2019-03-23T13:42:13.297Z,19.60
2019-03-23T13:44:17.117Z,15.32
2019-03-23T13:46:22.017Z,16.02
2019-03-23T13:48:25.480Z,18.10
2019-03-23T13:50:29.788Z,20.75
2019-03-23T13:52:33.654Z,19.57
2019-03-23T13:54:37.230Z,16.62
2019-03-23T13:56:40.824Z,19.85
2019-03-23T13:58:44.288Z,16.37
2019-03-23T14:00:48.045Z,15.53
2019-03-23T14:02:51.841Z,14.13
2019-03-23T14:04:55.653Z,14.50
2019-03-23T14:06:59.556Z,15.55
2019-03-23T14:09:04.215Z,13.65
2019-03-23T14:11:07.803Z,14.38
2019-03-23T14:13:11.277Z,18.10
2019-03-23T14:15:15.846Z,14.95
2019-03-23T14:17:19.597Z,16.55
2019-03-23T14:19:23.132Z,16.37
2019-03-23T14:21:26.698Z,15.13
2019-03-23T14:23:30.169Z,16.23
2019-03-23T14:25:35.436Z,17.90
2019-03-23T14:27:38.897Z,17.65
2019-03-23T14:29:42.377Z,19.48
2019-03-23T14:31:45.929Z,15.65
2019-03-23T14:33:50.304Z,14.90
2019-03-23T14:35:53.781Z,15.23
2019-03-23T14:37:57.717Z,16.75
2019-03-23T14:40:02.133Z,14.83
2019-03-23T14:42:05.600Z,15.38
2019-03-23T14:44:09.944Z,14.85
2019-03-23T14:46:15.359Z,16.70
2019-03-23T14:48:19.125Z,21.87
2019-03-23T14:50:22.864Z,16.65
2019-03-23T14:52:26.409Z,17.82
2019-03-23T14:54:30.783Z,16.10
2019-03-23T14:56:34.983Z,15.45
2019-03-23T14:58:38.546Z,15.43
2019-03-23T15:00:42.013Z,17.65
2019-03-23T15:02:46.293Z,16.30
2019-03-23T15:04:50.632Z,18.12
2019-03-23T15:06:54.100Z,18.37
2019-03-23T15:08:57.560Z,18.95
2019-03-23T15:11:01.241Z,17.82
2019-03-23T15:13:04.768Z,17.67
2019-03-23T15:15:09.392Z,15.53
2019-03-23T15:17:12.864Z,46.58
2019-03-23T15:19:16.401Z,30.27
2019-03-23T15:21:20.435Z,28.67
2019-03-23T15:23:23.979Z,19.65
2019-03-23T15:25:28.111Z,20.50
2019-03-23T15:27:32.528Z,19.00
2019-03-23T15:29:36.361Z,19.17
2019-03-23T15:31:40.889Z,19.75
2019-03-23T15:33:44.781Z,21.42
2019-03-23T15:35:48.977Z,28.67
2019-03-23T15:37:52.878Z,20.72
2019-03-23T15:39:56.478Z,20.35
2019-03-23T15:42:00.272Z,15.93
2019-03-23T15:44:03.908Z,24.23
2019-03-23T15:46:09.607Z,25.43
2019-03-23T15:48:13.153Z,20.23
2019-03-23T15:50:17.019Z,18.23
2019-03-23T15:52:20.560Z,15.00
2019-03-23T15:54:24.156Z,16.23
2019-03-23T15:56:27.624Z,15.70
2019-03-23T15:58:31.437Z,17.15
2019-03-23T16:00:34.902Z,18.90
2019-03-23T16:02:38.374Z,19.07
2019-03-23T16:04:42.255Z,20.15
2019-03-23T16:06:45.730Z,25.15
2019-03-23T16:08:49.260Z,20.23
2019-03-23T16:10:53.121Z,23.50
2019-03-23T16:12:56.660Z,24.92
2019-03-23T16:15:00.175Z,20.10
2019-03-23T16:17:04.096Z,22.20
2019-03-23T16:19:07.817Z,24.82
2019-03-23T16:21:12.213Z,35.90
2019-03-23T16:23:16.632Z,381.40
2019-03-23T16:25:20.108Z,189.62
2019-03-23T16:27:23.657Z,104.23
2019-03-23T16:29:28.054Z,67.40
2019-03-23T16:31:31.526Z,61.50
2019-03-23T16:33:35.363Z,63.15
2019-03-23T16:35:38.992Z,65.70
2019-03-23T16:37:42.978Z,85.10
2019-03-23T16:39:46.444Z,113.45
2019-03-23T16:41:50.264Z,67.20
2019-03-23T16:43:53.838Z,50.85
2019-03-23T16:45:57.379Z,143.95
2019-03-23T16:48:01.742Z,53.20
2019-03-23T16:50:07.614Z,101.82
2019-03-23T16:52:11.533Z,192.82
2019-03-23T16:54:15.445Z,307.67
2019-03-23T16:56:18.993Z,250.95
2019-03-23T16:58:22.568Z,226.77
2019-03-23T17:00:33.797Z,174.07
2019-03-23T17:02:37.708Z,95.87
2019-03-23T17:04:41.608Z,42.13
2019-03-23T17:06:46.547Z,168.50
2019-03-23T17:08:50.437Z,259.67
2019-03-23T17:10:54.452Z,168.72
2019-03-23T17:12:58.034Z,640.02
2019-03-23T17:15:01.580Z,525.25
2019-03-23T17:17:06.039Z,418.85
2019-03-23T17:19:09.598Z,776.35
2019-03-23T17:21:13.222Z,528.30
2019-03-23T17:23:16.692Z,401.15
2019-03-23T17:25:20.292Z,749.70
2019-03-23T17:27:24.129Z,538.70
2019-03-23T17:29:29.467Z,287.90
2019-03-23T17:31:33.882Z,71.07
2019-03-23T17:33:37.710Z,69.90
2019-03-23T17:35:41.181Z,99.13
2019-03-23T17:37:45.009Z,139.32
2019-03-23T17:39:49.400Z,266.75
2019-03-23T17:41:52.945Z,200.38
2019-03-23T17:43:56.832Z,225.43
2019-03-23T17:46:00.676Z,305.83
2019-03-23T17:48:05.045Z,245.95
2019-03-23T17:50:09.466Z,174.93
2019-03-23T17:52:13.465Z,157.67
2019-03-23T17:54:16.940Z,81.12
2019-03-23T17:56:21.354Z,55.12
2019-03-23T17:58:25.285Z,48.10
2019-03-23T18:00:30.236Z,53.20
2019-03-23T18:02:34.016Z,50.25
2019-03-23T18:04:37.561Z,57.20
2019-03-23T18:06:41.214Z,71.87
2019-03-23T18:08:44.757Z,91.75
2019-03-23T18:10:48.400Z,82.85
2019-03-23T18:12:52.310Z,117.85
2019-03-23T18:14:55.850Z,163.25
2019-03-23T18:16:59.837Z,129.47
2019-03-23T18:19:03.713Z,83.05
2019-03-23T18:21:07.836Z,69.47
2019-03-23T18:23:11.785Z,68.75
2019-03-23T18:25:15.589Z,88.85
2019-03-23T18:27:19.336Z,101.97
2019-03-23T18:29:25.381Z,267.55
2019-03-23T18:31:29.292Z,422.27
2019-03-23T18:33:33.597Z,365.20
2019-03-23T18:35:38.800Z,408.90
2019-03-23T18:37:42.348Z,355.23
2019-03-23T18:39:46.849Z,378.25
2019-03-23T18:41:50.696Z,384.13
2019-03-23T18:43:55.816Z,361.37
2019-03-23T18:45:59.817Z,374.62
2019-03-23T18:48:07.010Z,351.37
2019-03-23T18:50:11.096Z,284.30
2019-03-23T18:52:14.569Z,281.35
2019-03-23T18:54:18.420Z,192.07
2019-03-23T18:56:22.297Z,124.50
2019-03-23T18:58:26.789Z,119.22
2019-03-23T19:00:37.786Z,90.35
2019-03-23T19:02:43.329Z,112.05
2019-03-23T19:04:46.807Z,95.65
2019-03-23T19:06:50.344Z,82.72
2019-03-23T19:08:53.812Z,95.57
2019-03-23T19:10:58.108Z,92.02
2019-03-23T19:13:01.669Z,57.85
2019-03-23T19:15:07.993Z,118.62
2019-03-23T19:17:13.144Z,103.87
2019-03-23T19:19:17.581Z,73.07
2019-03-23T19:21:21.441Z,55.88
2019-03-23T19:23:25.223Z,55.95
2019-03-23T19:25:28.868Z,47.95
2019-03-23T19:27:33.233Z,78.60
2019-03-23T19:29:37.065Z,61.80
2019-03-23T19:31:40.612Z,50.33
2019-03-23T19:33:44.253Z,52.75
2019-03-23T19:35:48.078Z,51.48
2019-03-23T19:37:52.400Z,54.93
2019-03-23T19:39:56.504Z,74.77
2019-03-23T19:42:00.300Z,61.23
2019-03-23T19:44:04.877Z,52.43
2019-03-23T19:46:08.737Z,54.53
2019-03-23T19:48:12.280Z,57.27
2019-03-23T19:50:16.553Z,82.12
2019-03-23T19:52:21.664Z,59.50
2019-03-23T19:54:25.248Z,94.97
2019-03-23T19:56:28.748Z,69.55
2019-03-23T19:58:32.328Z,42.88
2019-03-23T20:00:35.893Z,51.80
2019-03-23T20:02:39.902Z,59.25
2019-03-23T20:04:43.386Z,110.65
2019-03-23T20:06:46.852Z,41.40
2019-03-23T20:08:50.764Z,41.92
2019-03-23T20:10:54.265Z,42.05
2019-03-23T20:12:57.788Z,49.30
2019-03-23T20:15:01.253Z,48.60
2019-03-23T20:17:04.799Z,65.37
2019-03-23T20:19:08.756Z,65.03
2019-03-23T20:21:12.736Z,72.67
2019-03-23T20:23:16.273Z,74.27
2019-03-23T20:25:19.941Z,115.70
2019-03-23T20:27:23.563Z,185.05
2019-03-23T20:29:27.405Z,76.28
2019-03-23T20:31:31.108Z,90.85
2019-03-23T20:33:34.937Z,85.67
2019-03-23T20:35:38.590Z,91.85
2019-03-23T20:37:42.136Z,97.40
2019-03-23T20:39:46.040Z,104.78
2019-03-23T20:41:49.625Z,102.92
2019-03-23T20:43:53.438Z,94.37
2019-03-23T20:45:58.232Z,111.00
2019-03-23T20:48:02.202Z,90.83
2019-03-23T20:50:07.617Z,83.75
2019-03-23T20:52:11.148Z,87.65
2019-03-23T20:54:14.961Z,82.37
2019-03-23T20:56:18.503Z,74.03
2019-03-23T20:58:22.617Z,62.10
2019-03-23T21:00:26.553Z,68.90
2019-03-23T21:02:30.479Z,70.92
2019-03-23T21:04:34.008Z,74.82
2019-03-23T21:06:37.548Z,77.17
2019-03-23T21:08:41.305Z,71.30
2019-03-23T21:10:45.140Z,63.98
2019-03-23T21:12:48.604Z,62.75
2019-03-23T21:14:52.192Z,153.45
2019-03-23T21:16:57.129Z,66.60
2019-03-23T21:19:00.941Z,68.35
2019-03-23T21:21:04.408Z,72.20
2019-03-23T21:23:08.729Z,66.33
2019-03-23T21:25:13.477Z,72.75
2019-03-23T21:27:17.021Z,68.90
2019-03-23T21:29:20.484Z,79.07
2019-03-23T21:31:24.952Z,80.50
2019-03-23T21:33:32.181Z,77.42
2019-03-23T21:35:33.683Z,73.62
2019-03-23T21:37:37.225Z,70.28
2019-03-23T21:39:40.755Z,71.50
2019-03-23T21:41:44.630Z,79.03
2019-03-23T21:43:48.448Z,79.65
2019-03-23T21:45:52.416Z,79.12
2019-03-23T21:47:55.956Z,80.55
2019-03-23T21:49:59.523Z,76.72
2019-03-23T21:52:03.067Z,72.45
2019-03-23T21:54:06.620Z,77.78
2019-03-23T21:56:10.200Z,88.52
2019-03-23T21:58:14.012Z,101.47
2019-03-23T22:00:31.280Z,103.67
2019-03-23T22:02:35.079Z,114.20
2019-03-23T22:04:38.946Z,140.88
2019-03-23T22:06:42.734Z,87.67
2019-03-23T22:08:46.569Z,85.30
2019-03-23T22:10:50.116Z,79.05
2019-03-23T22:12:53.756Z,79.22
2019-03-23T22:14:58.814Z,71.62
2019-03-23T22:17:02.567Z,66.75
2019-03-23T22:19:06.985Z,58.15
2019-03-23T22:21:12.793Z,56.48
2019-03-23T22:23:17.904Z,68.95
2019-03-23T22:25:21.494Z,77.70
2019-03-23T22:27:25.598Z,69.58
2019-03-23T22:29:29.147Z,79.67
2019-03-23T22:31:32.685Z,67.67
2019-03-23T22:33:36.559Z,77.03
2019-03-23T22:35:40.469Z,67.42
2019-03-23T22:37:44.008Z,66.12
2019-03-23T22:39:47.480Z,69.55
2019-03-23T22:41:51.368Z,73.52
2019-03-23T22:43:54.919Z,77.55
2019-03-23T22:45:58.423Z,75.57
2019-03-23T22:48:01.992Z,70.25
2019-03-23T22:50:07.720Z,76.90
2019-03-23T22:52:11.200Z,104.95
2019-03-23T22:54:14.824Z,87.42
2019-03-23T22:56:18.593Z,85.80
2019-03-23T22:58:22.064Z,78.35
2019-03-23T23:00:27.312Z,76.92
2019-03-23T23:02:30.850Z,80.03
2019-03-23T23:04:34.393Z,74.22
2019-03-23T23:06:37.932Z,72.40
2019-03-23T23:08:41.398Z,70.28
2019-03-23T23:10:44.867Z,73.55
2019-03-23T23:12:48.400Z,77.17
2019-03-23T23:14:53.733Z,74.27
2019-03-23T23:16:57.191Z,70.67
2019-03-23T23:19:01.624Z,68.50
2019-03-23T23:21:05.511Z,66.05
2019-03-23T23:23:09.041Z,71.00
2019-03-23T23:25:12.577Z,76.47
2019-03-23T23:27:16.337Z,63.35
2019-03-23T23:29:19.799Z,63.52
2019-03-23T23:31:23.267Z,70.67
2019-03-23T23:33:27.137Z,84.15
2019-03-23T23:35:30.596Z,71.37
2019-03-23T23:37:34.620Z,95.22
2019-03-23T23:39:38.169Z,69.80
2019-03-23T23:41:41.642Z,67.58
2019-03-23T23:43:45.208Z,73.47
2019-03-23T23:45:48.672Z,80.55
2019-03-23T23:47:52.139Z,74.97
2019-03-23T23:49:55.681Z,76.25
2019-03-23T23:51:59.517Z,71.95
2019-03-23T23:54:02.989Z,72.12
2019-03-23T23:56:06.628Z,68.75
2019-03-23T23:58:10.098Z,75.12
